Aviation Digital Data Service (ADDS)

Output produced by METARs form (0432 UTC 27 January 2021)
found at http://www.aviationweather.gov/metar/data/
 
NSFA 270300Z 35010KT 250V010 9999 -DZ FEW020 SCT040 OVC120 27/25 Q1007
NSFA 270200Z 35012KT 9999 FEW020 SCT038 BKN150 27/26 Q1007
NSFA 270100Z 33014KT 9000 RA FEW018 BKN034 OVC100 27/26 Q1007
NSFA 262300Z 35013KT 9999 FEW024 SCT062 OVC170 29/26 Q1007
NSFA 262200Z 06008KT 9999 FEW020 SCT055 OVC160 29/26 Q1008
NSFA 261900Z 35016KT 9999 FEW018 SCT080 OVC180 29/24 Q1008
NSFA 261800Z 36017KT 9999 FEW018 SCT080 OVC180 28/25 Q1006
NSFA 261700Z 35007KT 9999 FEW018 SCT080 BKN180 28/26 Q1006
NSFA 261600Z 35016KT 9999 FEW018 SCT050 BKN160 28/25 Q1006
NSFA 261500Z 01018KT 9999 SCT018 SCT040 BKN150 28/25 Q1005
NSFA 261400Z 36016KT 9999 SCT017 BKN040 OVC140 28/25 Q1006
NSFA 261300Z 36016KT 99909 SCT017 BKN040 OVC140 27/25 Q1007
NSFA 261200Z 01014KT 9999 SCT016 BKN040 OVC140 27/24 Q1007
NSFA 261100Z 36014KT 340V070 9999 SCT017 BKN050 OVC140 27/24 Q1008
NSFA 261000Z 10004KT 9999 FEW020 SCT050 OVC140 24/23 Q1008
NSFA 260900Z VRB03KT 9999 FEW020 SCT045 OVC120 24/23 Q1008
NSFA 260800Z 12004KT 9999 -DZ FEW018 SCT038 OVC100 23/23 Q1008
NSFA 260700Z 11005KT 9999 -DZ FEW017 BKN035 OVC100 24/23 Q1008 RERA
NSFA 260600Z 36021KT 270V020 9000 -SHRA FEW016 BKN032 OVC100 26/25 Q1008
TAF NSFA 262320Z 2700/2724 36012KT 9999 -SHRA FEW020 SCT060 OVC100 
     PROB40 
     TEMPO 2700/2706 02015G25KT 5000 TSRA BKN015 FEW018CB 
     TEMPO 2706/2718 3000 TSRA BKN012 SCT018CB 
     TEMPO 2718/2724 02015G25KT 5000 TSRA BKN015 FEW018CB